Time;durP1;ratioP1;P1;durP2;ratioP2;P2;SDS_P1;SDS_P2;PMS_P1;PMS_P2;Temp;Humidity;BMP_temperature;BMP_pressure;BME280_temperature;BME280_humidity;BME280_pressure;Samples;Min_cycle;Max_cycle;Signal;HPM_P1;HPM_P2
2021/01/13 00:00:27;;;;;;;12.03;1.70;;;2.20;99.90;;;;;;5006931;28;21019;-49
2021/01/13 00:02:54;;;;;;;9.33;1.20;;;2.20;99.90;;;;;;5010107;28;20598;-49
2021/01/13 00:05:22;;;;;;;8.50;1.60;;;2.20;99.90;;;;;;5004791;28;20476;-48
2021/01/13 00:07:51;;;;;;;5.07;1.40;;;2.20;99.90;;;;;;5012043;28;20495;-49
2021/01/13 00:10:20;;;;;;;7.53;1.63;;;2.20;99.90;;;;;;5014320;28;20995;-50
2021/01/13 00:12:48;;;;;;;6.07;1.10;;;2.20;99.90;;;;;;5028063;28;20490;-49
2021/01/13 00:15:20;;;;;;;6.10;1.27;;;2.20;99.90;;;;;;5009487;28;20469;-49
2021/01/13 00:17:48;;;;;;;7.00;1.53;;;2.20;99.90;;;;;;5008531;28;20484;-49
2021/01/13 00:20:16;;;;;;;11.77;1.40;;;2.20;99.90;;;;;;5008860;28;21391;-49
2021/01/13 00:22:46;;;;;;;6.17;1.20;;;2.10;99.90;;;;;;5008129;28;20473;-49
2021/01/13 00:25:16;;;;;;;6.70;1.40;;;2.20;99.90;;;;;;5008863;28;20518;-49
2021/01/13 00:27:44;;;;;;;7.10;1.40;;;2.20;99.90;;;;;;5008053;28;20476;-49
2021/01/13 00:30:12;;;;;;;9.00;1.60;;;2.20;99.90;;;;;;5016727;28;20500;-49
2021/01/13 00:32:39;;;;;;;10.07;1.33;;;2.20;99.90;;;;;;5008236;28;20993;-48
2021/01/13 00:35:08;;;;;;;8.57;1.23;;;2.20;99.90;;;;;;5008712;28;20552;-49
2021/01/13 00:37:36;;;;;;;6.97;1.60;;;2.20;99.90;;;;;;5016181;28;20534;-49
2021/01/13 00:40:06;;;;;;;7.27;1.17;;;2.20;99.90;;;;;;5028505;28;20567;-50
2021/01/13 00:42:37;;;;;;;7.47;1.23;;;2.20;99.90;;;;;;5027512;28;20572;-49
2021/01/13 00:45:06;;;;;;;7.03;1.13;;;2.20;99.90;;;;;;5027651;28;20496;-49
2021/01/13 00:47:33;;;;;;;7.83;1.63;;;2.10;99.90;;;;;;5028009;28;20473;-49
2021/01/13 00:50:00;;;;;;;3.47;0.87;;;2.20;99.90;;;;;;5028198;28;20464;-49
2021/01/13 00:52:28;;;;;;;5.03;1.00;;;2.10;99.90;;;;;;5025669;28;20480;-48
2021/01/13 00:54:55;;;;;;;2.57;0.77;;;2.10;99.90;;;;;;5017412;28;21032;-48
2021/01/13 00:57:23;;;;;;;6.40;0.80;;;2.10;99.90;;;;;;5027897;28;20484;-50
2021/01/13 00:59:51;;;;;;;5.27;0.90;;;2.10;99.90;;;;;;5016824;28;20546;-49
2021/01/13 01:02:18;;;;;;;4.33;0.97;;;2.10;99.90;;;;;;5003752;28;20498;-49
2021/01/13 01:04:46;;;;;;;7.60;1.03;;;2.10;99.90;;;;;;5013117;28;21679;-48
2021/01/13 01:07:13;;;;;;;5.27;1.10;;;2.10;99.90;;;;;;5013510;28;20472;-49
2021/01/13 01:09:40;;;;;;;8.73;1.60;;;2.10;99.90;;;;;;5027795;28;20472;-49
2021/01/13 01:12:08;;;;;;;6.20;1.10;;;2.10;99.90;;;;;;5014609;28;20495;-49
2021/01/13 01:14:36;;;;;;;6.70;1.73;;;2.10;99.90;;;;;;5007955;28;20949;-48
2021/01/13 01:17:10;;;;;;;7.60;1.03;;;2.10;99.90;;;;;;5007927;28;20508;-48
2021/01/13 01:19:39;;;;;;;5.50;1.03;;;2.10;99.90;;;;;;5008124;28;20913;-49
2021/01/13 01:22:06;;;;;;;12.67;1.67;;;2.10;99.90;;;;;;5007777;28;20484;-48
2021/01/13 01:24:33;;;;;;;6.87;1.20;;;2.10;99.90;;;;;;5010902;28;20496;-48
2021/01/13 01:27:01;;;;;;;5.33;1.00;;;2.20;99.90;;;;;;5007919;28;20535;-48
2021/01/13 01:29:28;;;;;;;6.60;1.30;;;2.20;99.90;;;;;;5018952;28;20987;-49
2021/01/13 01:31:55;;;;;;;8.20;1.00;;;2.20;99.90;;;;;;5027310;28;20541;-49
2021/01/13 01:34:24;;;;;;;8.57;1.30;;;2.20;99.90;;;;;;5027375;28;20468;-48
2021/01/13 01:36:55;;;;;;;3.90;0.97;;;2.20;99.90;;;;;;5027275;28;20963;-49
2021/01/13 01:39:22;;;;;;;8.00;1.17;;;2.20;99.90;;;;;;5027643;28;20999;-49
2021/01/13 01:41:50;;;;;;;10.20;1.80;;;2.20;99.90;;;;;;5026536;28;21043;-49
2021/01/13 01:44:17;;;;;;;7.20;1.30;;;2.20;99.90;;;;;;5027500;28;20495;-50
2021/01/13 01:46:48;;;;;;;12.13;1.70;;;2.20;99.90;;;;;;5013044;28;20997;-48
2021/01/13 01:49:17;;;;;;;10.27;1.40;;;2.10;99.90;;;;;;5007924;28;20530;-49
2021/01/13 01:51:59;;;;;;;7.07;1.30;;;2.10;99.90;;;;;;5007533;28;20951;-49
2021/01/13 01:54:34;;;;;;;7.23;1.47;;;2.20;99.90;;;;;;5006870;28;21184;-49
2021/01/13 01:57:04;;;;;;;17.07;2.57;;;2.20;99.90;;;;;;5011299;28;20475;-49
2021/01/13 01:59:43;;;;;;;10.63;1.23;;;2.20;99.90;;;;;;5011010;28;20476;-50
2021/01/13 02:02:12;;;;;;;10.93;1.73;;;2.20;99.90;;;;;;5021310;28;20479;-48
2021/01/13 02:04:44;;;;;;;10.03;2.03;;;2.10;99.90;;;;;;5013687;28;20471;-49
2021/01/13 02:07:30;;;;;;;10.83;1.70;;;2.10;99.90;;;;;;5029689;28;20554;-48
2021/01/13 02:10:00;;;;;;;7.80;1.63;;;2.10;99.90;;;;;;5016698;28;20828;-49
2021/01/13 02:12:31;;;;;;;13.03;1.77;;;2.10;99.90;;;;;;5018889;28;20511;-49
2021/01/13 02:15:01;;;;;;;10.37;2.03;;;2.10;99.90;;;;;;5028102;28;20569;-49
2021/01/13 02:17:35;;;;;;;11.93;1.43;;;2.10;99.90;;;;;;5030836;28;20483;-49
2021/01/13 02:20:15;;;;;;;11.93;1.20;;;2.10;99.90;;;;;;5031101;28;20475;-48
2021/01/13 02:23:02;;;;;;;11.40;1.60;;;2.10;99.90;;;;;;5025358;28;20525;-48
2021/01/13 02:26:23;;;;;;;14.13;1.43;;;2.10;99.90;;;;;;5010852;28;20559;-48
2021/01/13 02:29:00;;;;;;;13.63;2.03;;;2.10;99.90;;;;;;5010558;28;20484;-48
2021/01/13 02:31:44;;;;;;;7.13;1.40;;;2.10;99.90;;;;;;5010772;28;20842;-48
2021/01/13 02:34:35;;;;;;;10.63;1.60;;;2.10;99.90;;;;;;5010683;28;20484;-49
2021/01/13 02:37:42;;;;;;;12.90;1.53;;;2.10;99.90;;;;;;5010866;28;20464;-48
2021/01/13 02:40:19;;;;;;;9.97;1.53;;;2.20;99.90;;;;;;5018281;28;20473;-49
2021/01/13 02:42:58;;;;;;;10.63;1.93;;;2.10;99.90;;;;;;5026404;28;20561;-48
2021/01/13 02:45:27;;;;;;;11.10;2.20;;;2.10;99.90;;;;;;5030736;28;20647;-48
2021/01/13 02:48:10;;;;;;;12.40;2.07;;;2.20;99.90;;;;;;5024218;28;20488;-49
2021/01/13 02:50:41;;;;;;;10.60;1.40;;;2.20;99.90;;;;;;5010523;28;21023;-49
2021/01/13 02:53:59;;;;;;;10.30;1.50;;;2.20;99.90;;;;;;5010275;28;20507;-48
2021/01/13 02:56:52;;;;;;;10.47;1.70;;;2.20;99.90;;;;;;5010212;28;20480;-49
2021/01/13 02:59:20;;;;;;;8.07;1.40;;;2.10;99.90;;;;;;5006997;28;20498;-49
2021/01/13 03:01:49;;;;;;;11.07;1.87;;;2.20;99.90;;;;;;5011742;28;20475;-49
2021/01/13 03:04:17;;;;;;;6.53;1.20;;;2.20;99.90;;;;;;5029144;28;20511;-49
2021/01/13 03:06:47;;;;;;;8.57;1.40;;;2.20;99.90;;;;;;5022062;28;20556;-49
2021/01/13 03:09:16;;;;;;;6.47;1.33;;;2.20;99.90;;;;;;5012612;28;20475;-49
2021/01/13 03:11:44;;;;;;;8.73;1.40;;;2.20;99.90;;;;;;5021087;28;20483;-49
2021/01/13 03:14:26;;;;;;;8.57;1.17;;;2.20;99.90;;;;;;5029780;28;20542;-49
2021/01/13 03:17:09;;;;;;;11.80;1.87;;;2.20;99.90;;;;;;5029901;28;20546;-48
2021/01/13 03:20:25;;;;;;;7.47;1.37;;;2.20;99.90;;;;;;5030106;28;20841;-49
2021/01/13 03:23:06;;;;;;;11.00;1.40;;;2.10;99.90;;;;;;5003267;28;20493;-48
2021/01/13 03:25:42;;;;;;;7.23;1.13;;;2.10;99.90;;;;;;5022006;28;20472;-48
2021/01/13 03:28:11;;;;;;;5.30;1.10;;;2.10;99.90;;;;;;5021155;28;20555;-48
2021/01/13 03:30:40;;;;;;;6.50;1.23;;;2.20;99.90;;;;;;5029906;28;20575;-49
2021/01/13 03:33:46;;;;;;;9.77;1.53;;;2.10;99.90;;;;;;5029432;28;20876;-49
2021/01/13 03:36:21;;;;;;;11.20;1.30;;;2.20;99.90;;;;;;5028657;28;20477;-48
2021/01/13 03:39:05;;;;;;;6.03;1.00;;;2.20;99.90;;;;;;5026585;28;20564;-48
2021/01/13 03:42:04;;;;;;;10.67;1.43;;;2.20;99.90;;;;;;5011291;28;20859;-48
2021/01/13 03:44:34;;;;;;;8.17;1.47;;;2.20;99.90;;;;;;5009750;28;20473;-48
2021/01/13 03:47:33;;;;;;;7.37;1.23;;;2.20;99.90;;;;;;5009199;28;20581;-49
2021/01/13 03:50:18;;;;;;;12.43;2.07;;;2.20;99.90;;;;;;5009754;28;20584;-48
2021/01/13 03:52:56;;;;;;;6.63;1.17;;;2.20;99.90;;;;;;5008226;28;20542;-48
2021/01/13 03:55:26;;;;;;;7.03;1.33;;;2.20;99.90;;;;;;5006584;28;20472;-49
2021/01/13 03:58:32;;;;;;;8.97;1.87;;;2.20;99.90;;;;;;5006315;28;20584;-48
2021/01/13 04:01:14;;;;;;;8.43;1.40;;;2.10;99.90;;;;;;5011228;28;21503;-49
2021/01/13 04:03:55;;;;;;;11.70;1.47;;;2.20;99.90;;;;;;5014402;28;20473;-48
2021/01/13 04:06:25;;;;;;;9.53;1.60;;;2.20;99.90;;;;;;5028957;28;20508;-50
2021/01/13 04:08:53;;;;;;;7.80;1.70;;;2.20;99.90;;;;;;5028911;28;20500;-48
2021/01/13 04:11:23;;;;;;;7.50;1.60;;;2.20;99.90;;;;;;5015085;28;20559;-48
2021/01/13 04:13:53;;;;;;;9.43;1.80;;;2.20;99.90;;;;;;5023583;28;20519;-48
2021/01/13 04:16:23;;;;;;;7.30;1.33;;;2.20;99.90;;;;;;5009159;28;20829;-49
2021/01/13 04:18:52;;;;;;;14.37;2.40;;;2.20;99.90;;;;;;5008377;28;20581;-49
2021/01/13 04:21:22;;;;;;;9.10;1.87;;;2.20;99.90;;;;;;5008673;28;20485;-49
2021/01/13 04:23:50;;;;;;;9.23;1.60;;;2.20;99.90;;;;;;5008441;28;20476;-49
2021/01/13 04:26:18;;;;;;;9.07;1.20;;;2.20;99.90;;;;;;5015580;28;20564;-49
2021/01/13 04:28:48;;;;;;;10.70;1.50;;;2.20;99.90;;;;;;5023943;28;20474;-49
2021/01/13 04:31:16;;;;;;;15.38;2.03;;;2.20;99.90;;;;;;5020767;28;20810;-49
2021/01/13 04:33:44;;;;;;;9.40;1.93;;;2.20;99.90;;;;;;5020030;28;20247;-50
2021/01/13 04:36:14;;;;;;;7.80;1.43;;;2.20;99.90;;;;;;5028401;28;20569;-49
2021/01/13 04:38:42;;;;;;;9.67;2.27;;;2.20;99.90;;;;;;5026456;28;20475;-50
2021/01/13 04:41:12;;;;;;;9.97;1.83;;;2.20;99.90;;;;;;5008133;28;20532;-48
2021/01/13 04:44:00;;;;;;;6.67;1.37;;;2.20;99.90;;;;;;5008613;28;20501;-49
2021/01/13 04:46:31;;;;;;;12.20;1.80;;;2.20;99.90;;;;;;5008674;28;20485;-50
2021/01/13 04:49:08;;;;;;;13.37;1.60;;;2.20;99.90;;;;;;5012140;28;20519;-48
2021/01/13 04:51:38;;;;;;;9.00;1.77;;;2.20;99.90;;;;;;5008170;28;20504;-48
2021/01/13 04:54:09;;;;;;;9.30;1.40;;;2.20;99.90;;;;;;5003644;28;20539;-48
2021/01/13 04:57:34;;;;;;;7.03;1.30;;;2.20;99.90;;;;;;5000741;28;20538;-48
2021/01/13 05:00:12;;;;;;;9.17;1.50;;;2.20;99.90;;;;;;5022083;28;20544;-49
2021/01/13 05:03:02;;;;;;;11.27;1.40;;;2.30;99.90;;;;;;5010274;28;20496;-48
2021/01/13 05:05:31;;;;;;;6.03;1.80;;;2.20;99.90;;;;;;5007100;28;20473;-48
2021/01/13 05:08:26;;;;;;;7.70;1.50;;;2.20;99.90;;;;;;5008067;28;20553;-48
2021/01/13 05:11:04;;;;;;;7.00;1.50;;;2.20;99.90;;;;;;5007763;28;20571;-49
2021/01/13 05:13:35;;;;;;;7.03;1.60;;;2.20;99.90;;;;;;5007822;28;20551;-48
2021/01/13 05:16:11;;;;;;;10.60;2.77;;;2.20;99.90;;;;;;5007889;28;20476;-49
2021/01/13 05:18:57;;;;;;;9.27;2.70;;;2.20;99.90;;;;;;5009821;28;20479;-49
2021/01/13 05:21:26;;;;;;;6.47;2.13;;;2.20;99.90;;;;;;5007302;28;20512;-49
2021/01/13 05:23:55;;;;;;;11.33;2.60;;;2.20;99.90;;;;;;5007524;28;20534;-49
2021/01/13 05:26:24;;;;;;;11.57;2.50;;;2.20;99.90;;;;;;5007793;28;20504;-48
2021/01/13 05:29:32;;;;;;;12.37;2.37;;;2.20;99.90;;;;;;5007226;28;20503;-49
2021/01/13 05:32:01;;;;;;;11.83;2.33;;;2.20;99.90;;;;;;5016357;28;20535;-50
2021/01/13 05:34:34;;;;;;;10.03;2.30;;;2.20;99.90;;;;;;5007814;28;20481;-49
2021/01/13 05:37:17;;;;;;;5.80;1.43;;;2.20;99.90;;;;;;5007540;28;20550;-49
2021/01/13 05:39:47;;;;;;;3.70;1.70;;;2.20;99.90;;;;;;4997751;28;20479;-48
2021/01/13 05:42:17;;;;;;;6.40;1.57;;;2.20;99.90;;;;;;5007295;28;20519;-48
2021/01/13 05:44:47;;;;;;;8.40;2.10;;;2.20;99.90;;;;;;5007730;28;20477;-48
2021/01/13 05:47:53;;;;;;;6.80;1.53;;;2.20;99.90;;;;;;5007760;28;20476;-49
2021/01/13 05:50:22;;;;;;;6.30;1.53;;;2.20;99.90;;;;;;5015082;28;20474;-48
2021/01/13 05:52:53;;;;;;;7.07;2.00;;;2.20;99.90;;;;;;5011457;28;20480;-48
2021/01/13 05:55:24;;;;;;;6.93;1.50;;;2.20;99.90;;;;;;5009704;28;20567;-48
2021/01/13 05:57:56;;;;;;;6.60;1.63;;;2.20;99.90;;;;;;5007716;28;20468;-49
2021/01/13 06:00:27;;;;;;;6.80;1.60;;;2.20;99.90;;;;;;5015450;28;20486;-48
2021/01/13 06:02:58;;;;;;;7.57;1.67;;;2.20;99.90;;;;;;5015768;28;20880;-48
2021/01/13 06:05:28;;;;;;;8.87;1.50;;;2.20;99.90;;;;;;5007853;28;20484;-49
2021/01/13 06:07:58;;;;;;;6.27;1.63;;;2.30;99.90;;;;;;5008111;28;20491;-49
2021/01/13 06:10:30;;;;;;;8.40;2.10;;;2.20;99.90;;;;;;5007979;28;20603;-48
2021/01/13 06:13:00;;;;;;;10.47;1.77;;;2.30;99.90;;;;;;5007053;28;20579;-49
2021/01/13 06:15:30;;;;;;;6.17;1.33;;;2.20;99.90;;;;;;5007520;28;21017;-49
2021/01/13 06:17:59;;;;;;;9.70;1.63;;;2.20;99.90;;;;;;5007640;28;20507;-49
2021/01/13 06:20:28;;;;;;;9.73;1.50;;;2.20;99.90;;;;;;5007482;28;20523;-48
2021/01/13 06:22:59;;;;;;;6.40;1.70;;;2.20;99.90;;;;;;5007026;28;20480;-49
2021/01/13 06:25:28;;;;;;;9.33;1.50;;;2.20;99.90;;;;;;5007453;28;21029;-48
2021/01/13 06:28:10;;;;;;;6.97;1.70;;;2.20;99.90;;;;;;5007437;28;20488;-49
2021/01/13 06:30:43;;;;;;;8.30;1.60;;;2.20;99.90;;;;;;5014016;28;20539;-48
2021/01/13 06:33:23;;;;;;;6.77;1.67;;;2.20;99.90;;;;;;5007123;28;20477;-49
2021/01/13 06:36:21;;;;;;;7.23;1.70;;;2.10;99.90;;;;;;5012866;28;20468;-49
2021/01/13 06:38:55;;;;;;;13.40;2.17;;;2.20;99.90;;;;;;5005700;28;20563;-48
2021/01/13 06:41:24;;;;;;;9.70;2.33;;;2.20;99.90;;;;;;5007983;28;20571;-48
2021/01/13 06:44:04;;;;;;;9.23;2.00;;;2.20;99.90;;;;;;5009983;28;20484;-48
2021/01/13 06:46:33;;;;;;;8.33;1.90;;;2.20;99.90;;;;;;5009399;28;21578;-49
2021/01/13 06:49:16;;;;;;;12.13;2.40;;;2.20;99.90;;;;;;5015704;28;20468;-48
2021/01/13 06:51:45;;;;;;;8.97;1.63;;;2.20;99.90;;;;;;5012458;28;20500;-49
2021/01/13 06:54:15;;;;;;;8.47;1.50;;;2.20;99.90;;;;;;5023200;28;20562;-49
2021/01/13 06:56:50;;;;;;;12.90;1.90;;;2.20;99.90;;;;;;5029808;28;20475;-50
2021/01/13 06:59:20;;;;;;;10.20;1.70;;;2.20;99.90;;;;;;5020641;28;20541;-49
2021/01/13 07:01:53;;;;;;;8.70;1.57;;;2.20;99.90;;;;;;5021339;28;20491;-49
2021/01/13 07:04:22;;;;;;;8.97;1.70;;;2.20;99.90;;;;;;5013084;28;20495;-49
2021/01/13 07:07:02;;;;;;;8.30;1.60;;;2.30;99.90;;;;;;5008328;28;20487;-50
2021/01/13 07:09:37;;;;;;;7.30;1.47;;;2.20;99.90;;;;;;5005677;28;21001;-49
2021/01/13 07:12:11;;;;;;;9.37;1.80;;;2.20;99.90;;;;;;5003388;28;20487;-49
2021/01/13 07:14:41;;;;;;;6.83;1.30;;;2.20;99.90;;;;;;5003547;28;20513;-49
2021/01/13 07:17:11;;;;;;;6.73;1.27;;;2.20;99.90;;;;;;5025049;28;21051;-49
2021/01/13 07:19:38;;;;;;;7.60;1.37;;;2.20;99.90;;;;;;5022909;28;20483;-49
2021/01/13 07:22:06;;;;;;;7.03;1.10;;;2.20;99.90;;;;;;5024832;28;20970;-49
2021/01/13 07:24:33;;;;;;;7.37;1.33;;;2.20;99.90;;;;;;5025260;28;21018;-49
2021/01/13 07:27:02;;;;;;;4.10;1.17;;;2.20;99.90;;;;;;5017343;28;20487;-48
2021/01/13 07:29:29;;;;;;;5.20;0.97;;;2.20;99.90;;;;;;5005730;28;20484;-49
2021/01/13 07:31:58;;;;;;;7.23;1.67;;;2.20;99.90;;;;;;5006211;28;20492;-49
2021/01/13 07:34:36;;;;;;;6.83;1.40;;;2.20;99.90;;;;;;5019290;28;20531;-49
2021/01/13 07:37:08;;;;;;;9.60;1.57;;;2.20;99.90;;;;;;5005485;28;20850;-49
2021/01/13 07:40:34;;;;;;;8.33;1.60;;;2.20;99.90;;;;;;5002125;28;20548;-49
2021/01/13 07:43:08;;;;;;;6.33;1.60;;;2.20;99.90;;;;;;5003236;28;20481;-49
2021/01/13 07:45:42;;;;;;;7.47;1.43;;;2.20;99.90;;;;;;5000287;28;20912;-49
2021/01/13 07:48:45;;;;;;;5.07;1.60;;;2.10;99.90;;;;;;5007983;28;20521;-50
2021/01/13 07:51:19;;;;;;;8.03;1.27;;;2.10;99.90;;;;;;5022705;28;20537;-49
2021/01/13 07:54:06;;;;;;;4.67;1.57;;;2.10;99.90;;;;;;5023420;28;20507;-49
2021/01/13 07:56:37;;;;;;;12.07;1.90;;;2.10;99.90;;;;;;5008858;28;20550;-49
2021/01/13 07:59:39;;;;;;;10.30;1.57;;;2.10;99.90;;;;;;5004159;28;20980;-49
2021/01/13 08:03:04;;;;;;;6.27;1.33;;;2.10;99.90;;;;;;5003929;28;20476;-49
2021/01/13 08:06:29;;;;;;;9.10;1.70;;;2.20;99.90;;;;;;4983515;28;20486;-49
2021/01/13 08:09:12;;;;;;;8.60;1.60;;;2.20;99.90;;;;;;4996243;28;20564;-49
2021/01/13 08:12:46;;;;;;;7.13;1.50;;;2.20;99.90;;;;;;5004602;28;20472;-49
2021/01/13 08:16:10;;;;;;;8.43;1.77;;;2.20;99.90;;;;;;5004217;28;20485;-50
2021/01/13 08:19:27;;;;;;;4.80;1.53;;;2.20;99.90;;;;;;5004462;28;20823;-49
2021/01/13 08:22:04;;;;;;;5.93;1.60;;;2.10;99.90;;;;;;4997026;28;20484;-49
2021/01/13 08:24:33;;;;;;;7.03;2.50;;;2.10;99.90;;;;;;5004530;28;20899;-50
2021/01/13 08:27:01;;;;;;;8.33;2.30;;;2.10;99.90;;;;;;4996978;28;20484;-49
2021/01/13 08:29:36;;;;;;;12.27;2.87;;;2.10;99.90;;;;;;4998114;28;20565;-49
2021/01/13 08:32:06;;;;;;;7.97;2.70;;;2.10;99.90;;;;;;5004703;28;20558;-49
2021/01/13 08:34:39;;;;;;;8.03;2.30;;;2.10;99.90;;;;;;5004074;28;20480;-49
2021/01/13 08:37:09;;;;;;;8.03;2.43;;;2.10;99.90;;;;;;5004358;28;20838;-49
2021/01/13 08:39:38;;;;;;;8.10;2.13;;;2.10;99.90;;;;;;5004526;28;20531;-49
2021/01/13 08:42:22;;;;;;;7.17;2.23;;;2.10;99.90;;;;;;5004305;28;20570;-49
2021/01/13 08:44:50;;;;;;;11.20;2.40;;;2.10;99.90;;;;;;4999009;28;20484;-50
2021/01/13 08:47:18;;;;;;;8.87;1.87;;;2.10;99.90;;;;;;5001252;28;21343;-50
2021/01/13 08:49:47;;;;;;;10.70;2.33;;;2.20;99.90;;;;;;5018752;28;20479;-49
2021/01/13 08:52:21;;;;;;;9.83;2.73;;;2.10;99.90;;;;;;5017016;28;20559;-49
2021/01/13 08:55:15;;;;;;;11.87;2.40;;;2.20;99.90;;;;;;5007035;28;20559;-49
2021/01/13 08:57:56;;;;;;;9.17;1.93;;;2.20;99.90;;;;;;5023474;28;20562;-49
2021/01/13 09:00:26;;;;;;;12.93;2.30;;;2.10;99.90;;;;;;5023439;28;20533;-49
2021/01/13 09:03:10;;;;;;;11.57;2.27;;;2.10;99.90;;;;;;5012054;28;20480;-49
2021/01/13 09:05:41;;;;;;;10.63;1.60;;;2.20;99.90;;;;;;5003594;28;20504;-49
2021/01/13 09:08:11;;;;;;;10.37;2.00;;;2.30;99.90;;;;;;5005533;28;20477;-49
2021/01/13 09:10:54;;;;;;;15.70;2.83;;;2.30;99.90;;;;;;5005703;28;20496;-49
2021/01/13 09:13:43;;;;;;;9.00;2.30;;;2.40;99.90;;;;;;4985043;28;20509;-48
2021/01/13 09:16:33;;;;;;;11.77;2.13;;;2.40;99.90;;;;;;4998605;28;21012;-49
2021/01/13 09:19:11;;;;;;;10.07;1.80;;;2.40;99.90;;;;;;5004797;28;20569;-49
2021/01/13 09:21:41;;;;;;;12.03;2.00;;;2.50;99.90;;;;;;5004511;28;20563;-49
2021/01/13 09:24:18;;;;;;;10.47;2.03;;;2.40;99.90;;;;;;5005123;28;20474;-49
2021/01/13 09:26:53;;;;;;;11.20;2.40;;;2.40;99.90;;;;;;5004471;28;20487;-49
2021/01/13 09:29:22;;;;;;;14.83;2.30;;;2.40;99.90;;;;;;5005001;28;21019;-50
2021/01/13 09:32:11;;;;;;;9.53;1.93;;;2.50;99.90;;;;;;5007098;28;20509;-49
2021/01/13 09:34:47;;;;;;;6.82;1.48;;;2.50;99.90;;;;;;1906203;28;10022782;-50
2021/01/13 09:37:15;;;;;;;9.43;1.83;;;2.50;99.90;;;;;;4297985;28;10001098;-49
2021/01/13 09:39:58;;;;;;;12.83;1.93;;;2.50;99.90;;;;;;5004235;28;20506;-49
2021/01/13 09:42:38;;;;;;;7.90;1.53;;;2.50;99.90;;;;;;5000708;28;20491;-49
2021/01/13 09:45:09;;;;;;;15.03;2.10;;;2.50;99.90;;;;;;4994519;28;20476;-49
2021/01/13 09:47:37;;;;;;;7.83;1.50;;;2.50;99.90;;;;;;5017042;28;20883;-49
2021/01/13 09:50:07;;;;;;;7.00;1.60;;;2.60;99.90;;;;;;5015815;28;20480;-50
2021/01/13 09:52:42;;;;;;;14.47;2.30;;;2.60;99.90;;;;;;5003714;28;20508;-48
2021/01/13 09:55:13;;;;;;;13.57;1.80;;;2.70;99.90;;;;;;4985251;28;20868;-49
2021/01/13 09:57:41;;;;;;;12.63;2.30;;;2.80;99.90;;;;;;4992980;28;20481;-49
2021/01/13 10:00:12;;;;;;;10.73;2.00;;;2.90;99.90;;;;;;5004709;28;20485;-49
2021/01/13 10:02:43;;;;;;;12.87;2.63;;;3.00;99.90;;;;;;5003198;28;20925;-49
2021/01/13 10:05:12;;;;;;;13.87;2.40;;;2.90;99.90;;;;;;5002965;28;20485;-49
2021/01/13 10:07:40;;;;;;;9.20;2.67;;;2.90;99.90;;;;;;5003755;28;21110;-49
2021/01/13 10:10:09;;;;;;;12.20;1.87;;;2.90;99.90;;;;;;5004545;28;20557;-49
2021/01/13 10:12:39;;;;;;;14.40;2.60;;;2.90;99.90;;;;;;5012058;28;20477;-49
2021/01/13 10:15:10;;;;;;;15.70;2.50;;;3.00;99.90;;;;;;5003302;28;20488;-49
2021/01/13 10:17:39;;;;;;;10.80;2.33;;;3.10;99.90;;;;;;5006315;28;20891;-49
2021/01/13 10:20:15;;;;;;;18.47;2.50;;;3.30;99.90;;;;;;5006941;28;20484;-49
2021/01/13 10:22:47;;;;;;;19.50;2.93;;;3.40;99.90;;;;;;4997229;28;21249;-49
2021/01/13 10:25:26;;;;;;;13.83;2.43;;;3.60;99.90;;;;;;4987833;28;20485;-49
2021/01/13 10:27:55;;;;;;;15.57;2.57;;;3.50;99.90;;;;;;4986900;28;20485;-49
2021/01/13 10:30:25;;;;;;;10.27;2.60;;;3.40;99.90;;;;;;4990751;28;20507;-49
2021/01/13 10:32:54;;;;;;;11.37;2.33;;;3.40;99.90;;;;;;4989947;28;20481;-49
2021/01/13 10:35:23;;;;;;;8.50;1.80;;;3.40;99.90;;;;;;4986387;28;20563;-49
2021/01/13 10:37:56;;;;;;;10.17;1.70;;;3.50;99.90;;;;;;4992839;28;20587;-49
2021/01/13 10:40:25;;;;;;;12.93;2.63;;;3.60;99.90;;;;;;5008914;28;20505;-49
2021/01/13 10:42:55;;;;;;;11.57;1.90;;;3.60;99.90;;;;;;5001670;28;20584;-49
2021/01/13 10:45:25;;;;;;;8.57;1.83;;;3.70;99.90;;;;;;5010532;28;20500;-49
2021/01/13 10:47:58;;;;;;;12.97;2.03;;;3.80;99.90;;;;;;5016075;28;20479;-49
2021/01/13 10:50:27;;;;;;;9.83;1.77;;;4.00;99.90;;;;;;5007497;28;21003;-49
2021/01/13 10:52:57;;;;;;;10.17;1.93;;;4.10;99.90;;;;;;5007391;28;21066;-49
2021/01/13 10:55:26;;;;;;;10.00;2.20;;;4.00;99.90;;;;;;5007275;28;20572;-49
2021/01/13 10:57:56;;;;;;;9.50;1.93;;;3.90;99.90;;;;;;5019969;28;20505;-49
2021/01/13 11:00:27;;;;;;;9.10;2.03;;;3.80;99.90;;;;;;5006456;28;20475;-49
2021/01/13 11:02:57;;;;;;;9.73;1.77;;;3.90;99.90;;;;;;5006902;28;20480;-49
2021/01/13 11:05:26;;;;;;;12.30;1.80;;;3.90;99.90;;;;;;5007302;28;20482;-49
2021/01/13 11:07:56;;;;;;;8.33;1.70;;;4.00;99.90;;;;;;5007335;28;20498;-49
2021/01/13 11:10:25;;;;;;;11.63;2.03;;;4.10;99.90;;;;;;5007463;28;20491;-49
2021/01/13 11:13:04;;;;;;;9.07;1.77;;;4.10;99.90;;;;;;5014459;28;20475;-49
2021/01/13 11:15:33;;;;;;;14.73;2.43;;;4.20;99.90;;;;;;5013643;28;21018;-49
2021/01/13 11:18:08;;;;;;;12.60;1.90;;;4.20;99.90;;;;;;5026902;28;20481;-49
2021/01/13 11:20:35;;;;;;;9.73;2.10;;;4.10;99.90;;;;;;5012236;28;20515;-49
2021/01/13 11:23:05;;;;;;;10.83;2.10;;;4.10;99.90;;;;;;5006244;28;20554;-50
2021/01/13 11:25:39;;;;;;;15.00;2.20;;;4.10;99.90;;;;;;5009516;28;20892;-49
2021/01/13 11:28:11;;;;;;;11.80;2.00;;;4.20;99.90;;;;;;5009732;28;20579;-49
2021/01/13 11:30:43;;;;;;;7.00;2.17;;;4.20;99.90;;;;;;5000129;28;20490;-50
2021/01/13 11:33:14;;;;;;;20.03;2.47;;;4.20;99.90;;;;;;5017277;28;20984;-49
2021/01/13 11:35:45;;;;;;;12.93;1.90;;;4.20;99.90;;;;;;5004211;28;20484;-49
2021/01/13 11:38:54;;;;;;;9.67;2.00;;;4.30;99.90;;;;;;5017078;28;20483;-49
2021/01/13 11:42:12;;;;;;;16.27;2.77;;;4.40;99.90;;;;;;5010770;28;21224;-50
2021/01/13 11:45:01;;;;;;;10.57;2.07;;;4.50;99.90;;;;;;4998723;28;20709;-49
2021/01/13 11:47:33;;;;;;;14.70;2.93;;;4.70;99.90;;;;;;4982086;28;20492;-49
2021/01/13 11:50:13;;;;;;;14.53;2.20;;;4.60;99.90;;;;;;4997045;28;20990;-49
2021/01/13 11:52:45;;;;;;;15.10;2.30;;;4.60;99.90;;;;;;4992814;28;20496;-49
2021/01/13 11:55:13;;;;;;;12.70;1.80;;;4.70;99.90;;;;;;4985874;28;20511;-49
2021/01/13 11:57:46;;;;;;;13.57;2.13;;;4.70;99.90;;;;;;4995793;28;20559;-49
2021/01/13 12:00:17;;;;;;;13.53;2.43;;;4.80;99.90;;;;;;5005010;28;20475;-49
2021/01/13 12:02:51;;;;;;;11.40;2.47;;;4.80;99.90;;;;;;5004411;28;20486;-49
2021/01/13 12:05:28;;;;;;;10.63;2.20;;;4.90;99.90;;;;;;5005364;28;21031;-49
2021/01/13 12:07:58;;;;;;;12.80;2.90;;;5.00;99.90;;;;;;5001435;28;20510;-49
2021/01/13 12:10:31;;;;;;;14.37;2.70;;;5.10;99.90;;;;;;5000480;28;20936;-50
2021/01/13 12:13:18;;;;;;;13.47;2.70;;;5.20;99.90;;;;;;5004099;28;20497;-49
2021/01/13 12:15:54;;;;;;;11.80;2.50;;;5.30;99.90;;;;;;5008388;28;20533;-49
2021/01/13 12:18:24;;;;;;;11.87;2.37;;;5.40;99.90;;;;;;5002201;28;20777;-49
2021/01/13 12:20:54;;;;;;;17.00;3.00;;;5.40;99.90;;;;;;5016858;28;20559;-51
2021/01/13 12:23:29;;;;;;;15.23;2.50;;;5.40;99.90;;;;;;5003187;28;20886;-49
2021/01/13 12:26:17;;;;;;;13.40;2.83;;;5.50;99.90;;;;;;5004449;28;20549;-49
2021/01/13 12:28:47;;;;;;;16.37;2.47;;;5.50;99.90;;;;;;5003907;28;20825;-49
2021/01/13 12:31:17;;;;;;;15.07;2.83;;;5.50;99.90;;;;;;5003966;28;20803;-49
2021/01/13 12:33:52;;;;;;;11.23;2.10;;;5.40;99.90;;;;;;5000595;28;20876;-49
2021/01/13 12:36:23;;;;;;;10.63;2.40;;;5.30;99.90;;;;;;5014947;28;20602;-49
2021/01/13 12:38:51;;;;;;;12.07;2.80;;;5.20;99.90;;;;;;5011764;28;20490;-49
2021/01/13 12:41:24;;;;;;;13.63;2.93;;;5.20;99.90;;;;;;5021795;28;20472;-49
2021/01/13 12:43:53;;;;;;;17.97;2.83;;;5.20;99.90;;;;;;5005452;28;20555;-49
2021/01/13 12:46:32;;;;;;;14.70;2.20;;;5.20;99.90;;;;;;5005743;28;20488;-49
2021/01/13 12:49:00;;;;;;;17.40;2.60;;;5.20;99.90;;;;;;5005835;28;20522;-50
2021/01/13 12:51:28;;;;;;;11.47;2.20;;;5.20;99.90;;;;;;5005378;28;20905;-49
2021/01/13 12:53:56;;;;;;;16.67;2.80;;;5.20;99.90;;;;;;5005519;28;20521;-49
2021/01/13 12:56:29;;;;;;;15.40;2.20;;;5.10;99.90;;;;;;5005451;28;20494;-49
2021/01/13 12:58:58;;;;;;;14.17;2.30;;;5.10;99.90;;;;;;5005067;28;20496;-49
2021/01/13 13:01:26;;;;;;;9.57;2.20;;;5.10;99.90;;;;;;5013198;28;20485;-49
2021/01/13 13:03:58;;;;;;;18.37;2.67;;;5.10;99.90;;;;;;5013243;28;20566;-50
2021/01/13 13:06:27;;;;;;;12.07;2.30;;;5.10;99.90;;;;;;5005236;28;20490;-49
2021/01/13 13:08:56;;;;;;;17.17;3.00;;;5.10;99.90;;;;;;5005156;28;20521;-49
2021/01/13 13:11:24;;;;;;;14.27;2.60;;;5.00;99.90;;;;;;5004978;28;20480;-49
2021/01/13 13:13:52;;;;;;;11.77;2.10;;;5.00;99.90;;;;;;5004772;28;20894;-49
2021/01/13 13:16:20;;;;;;;14.77;2.60;;;4.90;99.90;;;;;;5008366;28;20492;-49
2021/01/13 13:18:49;;;;;;;10.83;2.03;;;4.90;99.90;;;;;;5016291;28;21076;-48
2021/01/13 13:21:20;;;;;;;16.87;2.70;;;4.80;99.90;;;;;;5014552;28;20515;-48
2021/01/13 13:23:47;;;;;;;20.23;2.67;;;4.80;99.90;;;;;;5004152;28;20538;-50
2021/01/13 13:26:15;;;;;;;22.70;3.10;;;4.80;99.90;;;;;;5002127;28;20516;-49
2021/01/13 13:28:43;;;;;;;14.43;2.17;;;4.70;99.90;;;;;;5004689;28;20511;-48
2021/01/13 13:31:13;;;;;;;6.43;1.80;;;4.70;99.90;;;;;;5005516;28;20479;-49
2021/01/13 13:33:42;;;;;;;11.97;2.13;;;4.50;99.90;;;;;;4999911;28;20479;-49